sensor_id;sensor_type;location;lat;lon;timestamp;P1;durP1;ratioP1;P2;durP2;ratioP2
69305;SDS011;56427;51.580;4.656;2022-08-20T00:00:36;29.65;;;11.73;;
69305;SDS011;56427;51.580;4.656;2022-08-20T00:03:05;24.42;;;11.20;;
69305;SDS011;56427;51.580;4.656;2022-08-20T00:05:39;28.88;;;11.75;;
69305;SDS011;56427;51.580;4.656;2022-08-20T00:08:08;24.97;;;11.53;;
69305;SDS011;56427;51.580;4.656;2022-08-20T00:10:34;27.23;;;11.23;;
69305;SDS011;56427;51.580;4.656;2022-08-20T00:13:03;21.30;;;9.50;;
69305;SDS011;56427;51.580;4.656;2022-08-20T00:15:30;29.85;;;10.80;;
69305;SDS011;56427;51.580;4.656;2022-08-20T00:17:57;27.02;;;10.68;;
69305;SDS011;56427;51.580;4.656;2022-08-20T00:20:25;29.37;;;10.47;;
69305;SDS011;56427;51.580;4.656;2022-08-20T00:22:53;24.73;;;11.13;;
69305;SDS011;56427;51.580;4.656;2022-08-20T00:25:20;28.88;;;10.55;;
69305;SDS011;56427;51.580;4.656;2022-08-20T00:27:46;30.73;;;10.32;;
69305;SDS011;56427;51.580;4.656;2022-08-20T00:30:12;31.23;;;11.20;;
69305;SDS011;56427;51.580;4.656;2022-08-20T00:32:43;29.10;;;10.57;;
69305;SDS011;56427;51.580;4.656;2022-08-20T00:35:15;27.02;;;10.65;;
69305;SDS011;56427;51.580;4.656;2022-08-20T00:37:43;27.20;;;10.90;;
69305;SDS011;56427;51.580;4.656;2022-08-20T00:40:11;30.43;;;12.53;;
69305;SDS011;56427;51.580;4.656;2022-08-20T00:42:42;34.83;;;12.23;;
69305;SDS011;56427;51.580;4.656;2022-08-20T00:45:16;34.35;;;11.40;;
69305;SDS011;56427;51.580;4.656;2022-08-20T00:47:42;32.58;;;11.50;;
69305;SDS011;56427;51.580;4.656;2022-08-20T00:50:09;36.17;;;11.87;;
69305;SDS011;56427;51.580;4.656;2022-08-20T00:52:36;33.70;;;11.65;;
69305;SDS011;56427;51.580;4.656;2022-08-20T00:55:03;34.67;;;11.90;;
69305;SDS011;56427;51.580;4.656;2022-08-20T00:57:35;38.72;;;13.05;;
69305;SDS011;56427;51.580;4.656;2022-08-20T01:00:05;35.20;;;12.45;;
69305;SDS011;56427;51.580;4.656;2022-08-20T01:02:37;39.33;;;13.37;;
69305;SDS011;56427;51.580;4.656;2022-08-20T01:05:03;32.15;;;12.38;;
69305;SDS011;56427;51.580;4.656;2022-08-20T01:07:33;26.73;;;11.60;;
69305;SDS011;56427;51.580;4.656;2022-08-20T01:10:00;34.10;;;12.85;;
69305;SDS011;56427;51.580;4.656;2022-08-20T01:12:30;38.73;;;12.33;;
69305;SDS011;56427;51.580;4.656;2022-08-20T01:14:57;32.92;;;13.20;;
69305;SDS011;56427;51.580;4.656;2022-08-20T01:17:25;34.92;;;12.63;;
69305;SDS011;56427;51.580;4.656;2022-08-20T01:20:05;33.67;;;12.85;;
69305;SDS011;56427;51.580;4.656;2022-08-20T01:22:37;26.93;;;11.40;;
69305;SDS011;56427;51.580;4.656;2022-08-20T01:25:39;32.58;;;13.07;;
69305;SDS011;56427;51.580;4.656;2022-08-20T01:28:08;27.40;;;11.75;;
69305;SDS011;56427;51.580;4.656;2022-08-20T01:30:35;30.67;;;12.18;;
69305;SDS011;56427;51.580;4.656;2022-08-20T01:33:02;31.52;;;12.45;;
69305;SDS011;56427;51.580;4.656;2022-08-20T01:35:28;34.67;;;12.27;;
69305;SDS011;56427;51.580;4.656;2022-08-20T01:37:54;33.00;;;12.68;;
69305;SDS011;56427;51.580;4.656;2022-08-20T01:40:26;35.43;;;14.57;;
69305;SDS011;56427;51.580;4.656;2022-08-20T01:43:03;33.60;;;13.75;;
69305;SDS011;56427;51.580;4.656;2022-08-20T01:45:30;34.35;;;14.07;;
69305;SDS011;56427;51.580;4.656;2022-08-20T01:47:57;30.17;;;13.97;;
69305;SDS011;56427;51.580;4.656;2022-08-20T01:50:24;33.28;;;14.80;;
69305;SDS011;56427;51.580;4.656;2022-08-20T01:55:48;41.90;;;16.33;;
69305;SDS011;56427;51.580;4.656;2022-08-20T01:58:13;37.80;;;16.08;;
69305;SDS011;56427;51.580;4.656;2022-08-20T02:00:39;42.37;;;16.90;;
69305;SDS011;56427;51.580;4.656;2022-08-20T02:03:04;43.70;;;17.40;;
69305;SDS011;56427;51.580;4.656;2022-08-20T02:05:30;41.40;;;17.37;;
69305;SDS011;56427;51.580;4.656;2022-08-20T02:07:57;38.38;;;17.33;;
69305;SDS011;56427;51.580;4.656;2022-08-20T02:10:22;43.00;;;19.23;;
69305;SDS011;56427;51.580;4.656;2022-08-20T02:12:48;44.80;;;19.05;;
69305;SDS011;56427;51.580;4.656;2022-08-20T02:15:14;40.87;;;17.17;;
69305;SDS011;56427;51.580;4.656;2022-08-20T02:17:40;46.60;;;18.27;;
69305;SDS011;56427;51.580;4.656;2022-08-20T02:22:35;39.13;;;17.83;;
69305;SDS011;56427;51.580;4.656;2022-08-20T02:25:08;38.87;;;16.93;;
69305;SDS011;56427;51.580;4.656;2022-08-20T02:27:35;46.40;;;17.05;;
69305;SDS011;56427;51.580;4.656;2022-08-20T02:30:03;38.05;;;15.23;;
69305;SDS011;56427;51.580;4.656;2022-08-20T02:32:35;41.17;;;15.38;;
69305;SDS011;56427;51.580;4.656;2022-08-20T02:35:02;35.60;;;15.98;;
69305;SDS011;56427;51.580;4.656;2022-08-20T02:37:36;39.70;;;16.00;;
69305;SDS011;56427;51.580;4.656;2022-08-20T02:40:02;32.70;;;15.68;;
69305;SDS011;56427;51.580;4.656;2022-08-20T02:42:29;33.83;;;14.82;;
69305;SDS011;56427;51.580;4.656;2022-08-20T02:44:55;40.83;;;16.50;;
69305;SDS011;56427;51.580;4.656;2022-08-20T02:47:21;37.28;;;14.77;;
69305;SDS011;56427;51.580;4.656;2022-08-20T02:49:46;41.17;;;15.37;;
69305;SDS011;56427;51.580;4.656;2022-08-20T02:52:12;34.67;;;15.07;;
69305;SDS011;56427;51.580;4.656;2022-08-20T02:54:37;42.30;;;16.17;;
69305;SDS011;56427;51.580;4.656;2022-08-20T02:57:03;42.97;;;15.95;;
69305;SDS011;56427;51.580;4.656;2022-08-20T02:59:28;42.40;;;15.20;;
69305;SDS011;56427;51.580;4.656;2022-08-20T03:01:53;42.47;;;16.67;;
69305;SDS011;56427;51.580;4.656;2022-08-20T03:04:19;34.90;;;15.20;;
69305;SDS011;56427;51.580;4.656;2022-08-20T03:06:44;35.93;;;14.67;;
69305;SDS011;56427;51.580;4.656;2022-08-20T03:09:09;44.75;;;16.38;;
69305;SDS011;56427;51.580;4.656;2022-08-20T03:11:35;37.80;;;14.60;;
69305;SDS011;56427;51.580;4.656;2022-08-20T03:14:03;43.92;;;16.08;;
69305;SDS011;56427;51.580;4.656;2022-08-20T03:16:28;44.07;;;16.50;;
69305;SDS011;56427;51.580;4.656;2022-08-20T03:18:54;42.37;;;16.33;;
69305;SDS011;56427;51.580;4.656;2022-08-20T03:21:19;31.13;;;14.45;;
69305;SDS011;56427;51.580;4.656;2022-08-20T03:23:45;33.17;;;15.27;;
69305;SDS011;56427;51.580;4.656;2022-08-20T03:26:11;41.90;;;16.53;;
69305;SDS011;56427;51.580;4.656;2022-08-20T03:28:37;41.70;;;15.32;;
69305;SDS011;56427;51.580;4.656;2022-08-20T03:31:03;39.60;;;15.93;;
69305;SDS011;56427;51.580;4.656;2022-08-20T03:33:29;41.53;;;14.35;;
69305;SDS011;56427;51.580;4.656;2022-08-20T03:35:55;40.23;;;15.00;;
69305;SDS011;56427;51.580;4.656;2022-08-20T03:38:21;39.00;;;15.27;;
69305;SDS011;56427;51.580;4.656;2022-08-20T03:40:48;41.30;;;15.95;;
69305;SDS011;56427;51.580;4.656;2022-08-20T03:43:14;40.17;;;15.50;;
69305;SDS011;56427;51.580;4.656;2022-08-20T03:45:40;43.83;;;15.00;;
69305;SDS011;56427;51.580;4.656;2022-08-20T03:48:08;38.58;;;14.38;;
69305;SDS011;56427;51.580;4.656;2022-08-20T03:50:40;32.97;;;15.48;;
69305;SDS011;56427;51.580;4.656;2022-08-20T03:53:06;52.30;;;17.60;;
69305;SDS011;56427;51.580;4.656;2022-08-20T03:55:36;43.33;;;15.60;;
69305;SDS011;56427;51.580;4.656;2022-08-20T03:58:03;42.30;;;16.60;;
69305;SDS011;56427;51.580;4.656;2022-08-20T04:00:41;39.25;;;15.45;;
69305;SDS011;56427;51.580;4.656;2022-08-20T04:03:09;32.75;;;14.65;;
69305;SDS011;56427;51.580;4.656;2022-08-20T04:05:35;37.47;;;14.93;;
69305;SDS011;56427;51.580;4.656;2022-08-20T04:08:04;36.60;;;15.40;;
69305;SDS011;56427;51.580;4.656;2022-08-20T04:10:32;35.05;;;13.40;;
69305;SDS011;56427;51.580;4.656;2022-08-20T04:12:58;32.90;;;12.70;;
69305;SDS011;56427;51.580;4.656;2022-08-20T04:15:23;31.30;;;13.18;;
69305;SDS011;56427;51.580;4.656;2022-08-20T04:17:49;33.80;;;13.93;;
69305;SDS011;56427;51.580;4.656;2022-08-20T04:20:16;34.75;;;14.25;;
69305;SDS011;56427;51.580;4.656;2022-08-20T04:22:47;33.38;;;13.88;;
69305;SDS011;56427;51.580;4.656;2022-08-20T04:25:13;25.93;;;12.97;;
69305;SDS011;56427;51.580;4.656;2022-08-20T04:27:39;30.73;;;13.13;;
69305;SDS011;56427;51.580;4.656;2022-08-20T04:30:05;28.83;;;12.67;;
69305;SDS011;56427;51.580;4.656;2022-08-20T04:32:32;27.23;;;12.68;;
69305;SDS011;56427;51.580;4.656;2022-08-20T04:35:01;28.17;;;12.95;;
69305;SDS011;56427;51.580;4.656;2022-08-20T04:37:31;28.10;;;13.13;;
69305;SDS011;56427;51.580;4.656;2022-08-20T04:39:57;27.85;;;13.05;;
69305;SDS011;56427;51.580;4.656;2022-08-20T04:42:50;32.00;;;14.00;;
69305;SDS011;56427;51.580;4.656;2022-08-20T04:45:16;38.70;;;15.10;;
69305;SDS011;56427;51.580;4.656;2022-08-20T04:47:41;42.50;;;15.47;;
69305;SDS011;56427;51.580;4.656;2022-08-20T04:50:07;37.07;;;15.47;;
69305;SDS011;56427;51.580;4.656;2022-08-20T04:52:34;33.08;;;14.63;;
69305;SDS011;56427;51.580;4.656;2022-08-20T04:54:59;29.60;;;14.20;;
69305;SDS011;56427;51.580;4.656;2022-08-20T04:57:25;29.43;;;12.63;;
69305;SDS011;56427;51.580;4.656;2022-08-20T04:59:51;35.05;;;15.05;;
69305;SDS011;56427;51.580;4.656;2022-08-20T05:02:18;26.00;;;12.70;;
69305;SDS011;56427;51.580;4.656;2022-08-20T05:04:44;31.10;;;12.63;;
69305;SDS011;56427;51.580;4.656;2022-08-20T05:07:11;38.15;;;14.02;;
69305;SDS011;56427;51.580;4.656;2022-08-20T05:09:37;29.40;;;13.02;;
69305;SDS011;56427;51.580;4.656;2022-08-20T05:12:03;25.10;;;12.27;;
69305;SDS011;56427;51.580;4.656;2022-08-20T05:14:28;31.70;;;13.63;;
69305;SDS011;56427;51.580;4.656;2022-08-20T05:16:54;35.03;;;14.53;;
69305;SDS011;56427;51.580;4.656;2022-08-20T05:19:21;32.00;;;13.10;;
69305;SDS011;56427;51.580;4.656;2022-08-20T05:21:47;22.73;;;11.75;;
69305;SDS011;56427;51.580;4.656;2022-08-20T05:24:13;20.60;;;9.87;;
69305;SDS011;56427;51.580;4.656;2022-08-20T05:26:39;17.40;;;9.77;;
69305;SDS011;56427;51.580;4.656;2022-08-20T05:29:04;18.60;;;8.77;;
69305;SDS011;56427;51.580;4.656;2022-08-20T05:31:31;16.30;;;8.07;;
69305;SDS011;56427;51.580;4.656;2022-08-20T05:33:57;17.77;;;7.70;;
69305;SDS011;56427;51.580;4.656;2022-08-20T05:36:22;17.97;;;8.23;;
69305;SDS011;56427;51.580;4.656;2022-08-20T05:38:48;17.13;;;7.87;;
69305;SDS011;56427;51.580;4.656;2022-08-20T05:41:13;18.60;;;9.73;;
69305;SDS011;56427;51.580;4.656;2022-08-20T05:43:38;22.87;;;11.00;;
69305;SDS011;56427;51.580;4.656;2022-08-20T05:46:04;18.75;;;9.95;;
69305;SDS011;56427;51.580;4.656;2022-08-20T05:48:30;17.73;;;9.30;;
69305;SDS011;56427;51.580;4.656;2022-08-20T05:50:59;23.75;;;9.77;;
69305;SDS011;56427;51.580;4.656;2022-08-20T05:53:26;20.60;;;10.17;;
69305;SDS011;56427;51.580;4.656;2022-08-20T05:55:51;14.17;;;8.87;;
69305;SDS011;56427;51.580;4.656;2022-08-20T05:58:19;16.88;;;10.25;;
69305;SDS011;56427;51.580;4.656;2022-08-20T06:00:50;16.92;;;9.75;;
69305;SDS011;56427;51.580;4.656;2022-08-20T06:03:16;17.95;;;9.38;;
69305;SDS011;56427;51.580;4.656;2022-08-20T06:06:00;15.37;;;9.23;;
69305;SDS011;56427;51.580;4.656;2022-08-20T06:08:25;15.27;;;9.43;;
69305;SDS011;56427;51.580;4.656;2022-08-20T06:10:50;18.80;;;9.50;;
69305;SDS011;56427;51.580;4.656;2022-08-20T06:13:16;19.40;;;10.30;;
69305;SDS011;56427;51.580;4.656;2022-08-20T06:15:41;17.17;;;10.07;;
69305;SDS011;56427;51.580;4.656;2022-08-20T06:18:07;17.87;;;9.27;;
69305;SDS011;56427;51.580;4.656;2022-08-20T06:20:35;15.20;;;9.00;;
69305;SDS011;56427;51.580;4.656;2022-08-20T06:23:02;19.00;;;9.70;;
69305;SDS011;56427;51.580;4.656;2022-08-20T06:25:28;17.50;;;9.13;;
69305;SDS011;56427;51.580;4.656;2022-08-20T06:27:54;17.08;;;8.65;;
69305;SDS011;56427;51.580;4.656;2022-08-20T06:30:19;12.90;;;8.57;;
69305;SDS011;56427;51.580;4.656;2022-08-20T06:32:45;14.20;;;6.97;;
69305;SDS011;56427;51.580;4.656;2022-08-20T06:35:11;13.45;;;7.25;;
69305;SDS011;56427;51.580;4.656;2022-08-20T06:37:38;13.63;;;7.33;;
69305;SDS011;56427;51.580;4.656;2022-08-20T06:40:06;11.98;;;7.80;;
69305;SDS011;56427;51.580;4.656;2022-08-20T06:42:34;11.00;;;7.28;;
69305;SDS011;56427;51.580;4.656;2022-08-20T06:45:00;11.23;;;6.47;;
69305;SDS011;56427;51.580;4.656;2022-08-20T06:47:28;10.00;;;7.10;;
69305;SDS011;56427;51.580;4.656;2022-08-20T06:49:55;11.57;;;7.05;;
69305;SDS011;56427;51.580;4.656;2022-08-20T06:52:20;14.83;;;6.47;;
69305;SDS011;56427;51.580;4.656;2022-08-20T06:54:46;11.35;;;7.55;;
69305;SDS011;56427;51.580;4.656;2022-08-20T06:57:11;10.93;;;6.57;;
69305;SDS011;56427;51.580;4.656;2022-08-20T06:59:36;8.90;;;6.00;;
69305;SDS011;56427;51.580;4.656;2022-08-20T07:02:02;10.33;;;6.00;;
69305;SDS011;56427;51.580;4.656;2022-08-20T07:04:28;9.98;;;6.18;;
69305;SDS011;56427;51.580;4.656;2022-08-20T07:06:54;9.50;;;6.67;;
69305;SDS011;56427;51.580;4.656;2022-08-20T07:09:21;11.70;;;6.00;;
69305;SDS011;56427;51.580;4.656;2022-08-20T07:11:47;11.02;;;6.07;;
69305;SDS011;56427;51.580;4.656;2022-08-20T07:14:13;10.40;;;5.90;;
69305;SDS011;56427;51.580;4.656;2022-08-20T07:16:40;11.23;;;5.80;;
69305;SDS011;56427;51.580;4.656;2022-08-20T07:19:05;9.43;;;6.00;;
69305;SDS011;56427;51.580;4.656;2022-08-20T07:21:32;14.73;;;5.80;;
69305;SDS011;56427;51.580;4.656;2022-08-20T07:23:57;11.43;;;5.07;;
69305;SDS011;56427;51.580;4.656;2022-08-20T07:26:23;9.70;;;4.83;;
69305;SDS011;56427;51.580;4.656;2022-08-20T07:28:48;11.77;;;5.10;;
69305;SDS011;56427;51.580;4.656;2022-08-20T07:31:14;11.10;;;4.82;;
69305;SDS011;56427;51.580;4.656;2022-08-20T07:33:58;12.30;;;5.45;;
69305;SDS011;56427;51.580;4.656;2022-08-20T07:36:23;9.80;;;4.73;;
69305;SDS011;56427;51.580;4.656;2022-08-20T07:38:49;11.83;;;4.70;;
69305;SDS011;56427;51.580;4.656;2022-08-20T07:41:16;7.72;;;4.20;;
69305;SDS011;56427;51.580;4.656;2022-08-20T07:43:43;11.75;;;4.72;;
69305;SDS011;56427;51.580;4.656;2022-08-20T07:46:12;11.87;;;4.73;;
69305;SDS011;56427;51.580;4.656;2022-08-20T07:48:40;10.77;;;4.00;;
69305;SDS011;56427;51.580;4.656;2022-08-20T07:51:10;9.93;;;4.43;;
69305;SDS011;56427;51.580;4.656;2022-08-20T07:53:37;8.20;;;3.90;;
69305;SDS011;56427;51.580;4.656;2022-08-20T07:56:05;10.00;;;3.92;;
69305;SDS011;56427;51.580;4.656;2022-08-20T07:58:47;10.50;;;3.70;;
69305;SDS011;56427;51.580;4.656;2022-08-20T08:01:22;10.95;;;4.20;;
69305;SDS011;56427;51.580;4.656;2022-08-20T08:03:53;9.75;;;3.85;;
69305;SDS011;56427;51.580;4.656;2022-08-20T08:06:19;10.97;;;3.73;;
69305;SDS011;56427;51.580;4.656;2022-08-20T08:08:45;10.10;;;3.72;;
69305;SDS011;56427;51.580;4.656;2022-08-20T08:11:11;10.60;;;3.55;;
69305;SDS011;56427;51.580;4.656;2022-08-20T08:13:38;9.53;;;3.17;;
69305;SDS011;56427;51.580;4.656;2022-08-20T08:16:05;8.60;;;3.20;;
69305;SDS011;56427;51.580;4.656;2022-08-20T08:18:33;11.80;;;3.23;;
69305;SDS011;56427;51.580;4.656;2022-08-20T08:21:20;8.55;;;3.15;;
69305;SDS011;56427;51.580;4.656;2022-08-20T08:23:46;10.05;;;3.00;;
69305;SDS011;56427;51.580;4.656;2022-08-20T08:26:11;9.70;;;3.03;;
69305;SDS011;56427;51.580;4.656;2022-08-20T08:28:38;11.25;;;2.90;;
69305;SDS011;56427;51.580;4.656;2022-08-20T08:31:04;9.10;;;3.23;;
69305;SDS011;56427;51.580;4.656;2022-08-20T08:33:29;8.60;;;3.03;;
69305;SDS011;56427;51.580;4.656;2022-08-20T08:36:00;7.27;;;2.40;;
69305;SDS011;56427;51.580;4.656;2022-08-20T08:38:29;9.30;;;2.97;;
69305;SDS011;56427;51.580;4.656;2022-08-20T08:40:57;9.40;;;2.95;;
69305;SDS011;56427;51.580;4.656;2022-08-20T08:43:27;9.00;;;2.80;;
69305;SDS011;56427;51.580;4.656;2022-08-20T08:45:57;10.20;;;2.30;;
69305;SDS011;56427;51.580;4.656;2022-08-20T08:48:30;8.23;;;2.00;;
69305;SDS011;56427;51.580;4.656;2022-08-20T08:51:00;8.38;;;2.15;;
69305;SDS011;56427;51.580;4.656;2022-08-20T08:53:30;6.97;;;2.20;;
69305;SDS011;56427;51.580;4.656;2022-08-20T08:55:59;10.88;;;2.50;;
69305;SDS011;56427;51.580;4.656;2022-08-20T08:58:24;7.68;;;2.05;;
69305;SDS011;56427;51.580;4.656;2022-08-20T09:00:51;9.02;;;2.20;;
69305;SDS011;56427;51.580;4.656;2022-08-20T09:03:23;8.93;;;1.90;;
69305;SDS011;56427;51.580;4.656;2022-08-20T09:05:53;9.02;;;2.03;;
69305;SDS011;56427;51.580;4.656;2022-08-20T09:08:30;9.13;;;2.22;;
69305;SDS011;56427;51.580;4.656;2022-08-20T09:11:11;7.80;;;2.20;;
69305;SDS011;56427;51.580;4.656;2022-08-20T09:13:37;7.30;;;1.90;;
69305;SDS011;56427;51.580;4.656;2022-08-20T09:16:03;10.17;;;2.00;;
69305;SDS011;56427;51.580;4.656;2022-08-20T09:18:28;6.80;;;2.13;;
69305;SDS011;56427;51.580;4.656;2022-08-20T09:20:54;8.47;;;2.10;;
69305;SDS011;56427;51.580;4.656;2022-08-20T09:23:19;9.25;;;1.92;;
69305;SDS011;56427;51.580;4.656;2022-08-20T09:25:45;7.63;;;2.00;;
69305;SDS011;56427;51.580;4.656;2022-08-20T09:28:10;6.57;;;1.93;;
69305;SDS011;56427;51.580;4.656;2022-08-20T09:30:35;8.80;;;1.90;;
69305;SDS011;56427;51.580;4.656;2022-08-20T09:33:00;9.47;;;2.10;;
69305;SDS011;56427;51.580;4.656;2022-08-20T09:35:26;9.20;;;2.30;;
69305;SDS011;56427;51.580;4.656;2022-08-20T09:37:52;7.70;;;2.10;;
69305;SDS011;56427;51.580;4.656;2022-08-20T09:40:18;11.15;;;2.05;;
69305;SDS011;56427;51.580;4.656;2022-08-20T09:42:43;8.97;;;2.20;;
69305;SDS011;56427;51.580;4.656;2022-08-20T09:45:09;9.07;;;2.53;;
69305;SDS011;56427;51.580;4.656;2022-08-20T09:47:35;9.80;;;2.08;;
69305;SDS011;56427;51.580;4.656;2022-08-20T09:50:00;9.30;;;1.80;;
69305;SDS011;56427;51.580;4.656;2022-08-20T09:52:27;6.57;;;2.00;;
69305;SDS011;56427;51.580;4.656;2022-08-20T09:54:59;9.88;;;2.13;;
69305;SDS011;56427;51.580;4.656;2022-08-20T09:57:26;8.30;;;2.22;;
69305;SDS011;56427;51.580;4.656;2022-08-20T09:59:56;10.25;;;2.40;;
69305;SDS011;56427;51.580;4.656;2022-08-20T10:02:24;9.70;;;2.17;;
69305;SDS011;56427;51.580;4.656;2022-08-20T10:04:50;8.83;;;2.57;;
69305;SDS011;56427;51.580;4.656;2022-08-20T10:07:15;8.25;;;2.30;;
69305;SDS011;56427;51.580;4.656;2022-08-20T10:09:41;8.03;;;2.00;;
69305;SDS011;56427;51.580;4.656;2022-08-20T10:12:06;10.00;;;2.00;;
69305;SDS011;56427;51.580;4.656;2022-08-20T10:14:32;9.23;;;2.20;;
69305;SDS011;56427;51.580;4.656;2022-08-20T10:16:57;6.67;;;2.27;;
69305;SDS011;56427;51.580;4.656;2022-08-20T10:19:23;10.35;;;2.20;;
69305;SDS011;56427;51.580;4.656;2022-08-20T10:21:50;11.95;;;2.20;;
69305;SDS011;56427;51.580;4.656;2022-08-20T10:24:17;10.75;;;2.10;;
69305;SDS011;56427;51.580;4.656;2022-08-20T10:26:43;11.20;;;1.98;;
69305;SDS011;56427;51.580;4.656;2022-08-20T10:29:09;8.53;;;2.10;;
69305;SDS011;56427;51.580;4.656;2022-08-20T10:31:34;8.60;;;1.97;;
69305;SDS011;56427;51.580;4.656;2022-08-20T10:33:59;7.40;;;2.03;;
69305;SDS011;56427;51.580;4.656;2022-08-20T10:36:24;8.60;;;2.40;;
69305;SDS011;56427;51.580;4.656;2022-08-20T10:38:50;10.77;;;2.17;;
69305;SDS011;56427;51.580;4.656;2022-08-20T10:41:15;9.03;;;2.30;;
69305;SDS011;56427;51.580;4.656;2022-08-20T10:43:40;10.43;;;2.63;;
69305;SDS011;56427;51.580;4.656;2022-08-20T10:46:06;7.73;;;1.90;;
69305;SDS011;56427;51.580;4.656;2022-08-20T10:48:31;8.40;;;1.83;;
69305;SDS011;56427;51.580;4.656;2022-08-20T10:50:57;8.48;;;2.08;;
69305;SDS011;56427;51.580;4.656;2022-08-20T10:53:22;8.83;;;2.13;;
69305;SDS011;56427;51.580;4.656;2022-08-20T10:55:47;9.03;;;1.93;;
69305;SDS011;56427;51.580;4.656;2022-08-20T10:58:13;10.73;;;2.00;;
69305;SDS011;56427;51.580;4.656;2022-08-20T11:00:38;9.80;;;2.27;;
69305;SDS011;56427;51.580;4.656;2022-08-20T11:03:05;12.05;;;2.13;;
69305;SDS011;56427;51.580;4.656;2022-08-20T11:05:30;13.27;;;2.33;;
69305;SDS011;56427;51.580;4.656;2022-08-20T11:07:55;8.40;;;1.97;;
69305;SDS011;56427;51.580;4.656;2022-08-20T11:10:22;9.18;;;2.15;;
69305;SDS011;56427;51.580;4.656;2022-08-20T11:12:49;7.80;;;1.83;;
69305;SDS011;56427;51.580;4.656;2022-08-20T11:15:14;7.63;;;2.00;;
69305;SDS011;56427;51.580;4.656;2022-08-20T11:17:41;10.93;;;2.40;;
69305;SDS011;56427;51.580;4.656;2022-08-20T11:20:08;9.57;;;2.40;;
69305;SDS011;56427;51.580;4.656;2022-08-20T11:22:34;8.73;;;2.10;;
69305;SDS011;56427;51.580;4.656;2022-08-20T11:25:01;8.13;;;2.30;;
69305;SDS011;56427;51.580;4.656;2022-08-20T11:27:28;11.02;;;1.95;;
69305;SDS011;56427;51.580;4.656;2022-08-20T11:29:56;6.20;;;2.20;;
69305;SDS011;56427;51.580;4.656;2022-08-20T11:32:22;6.97;;;2.13;;
69305;SDS011;56427;51.580;4.656;2022-08-20T11:34:48;10.35;;;2.15;;
69305;SDS011;56427;51.580;4.656;2022-08-20T11:37:14;7.77;;;2.60;;
69305;SDS011;56427;51.580;4.656;2022-08-20T11:39:40;7.45;;;1.92;;
69305;SDS011;56427;51.580;4.656;2022-08-20T11:42:05;12.43;;;2.20;;
69305;SDS011;56427;51.580;4.656;2022-08-20T11:44:31;10.65;;;2.33;;
69305;SDS011;56427;51.580;4.656;2022-08-20T11:47:00;7.33;;;2.30;;
69305;SDS011;56427;51.580;4.656;2022-08-20T11:49:28;9.18;;;2.05;;
69305;SDS011;56427;51.580;4.656;2022-08-20T11:51:54;6.05;;;2.00;;
69305;SDS011;56427;51.580;4.656;2022-08-20T11:54:19;8.27;;;2.00;;
69305;SDS011;56427;51.580;4.656;2022-08-20T11:56:45;7.93;;;1.77;;
69305;SDS011;56427;51.580;4.656;2022-08-20T11:59:10;10.40;;;2.57;;
69305;SDS011;56427;51.580;4.656;2022-08-20T12:01:35;7.43;;;2.20;;
69305;SDS011;56427;51.580;4.656;2022-08-20T12:04:01;8.17;;;2.23;;
69305;SDS011;56427;51.580;4.656;2022-08-20T12:06:26;10.50;;;2.30;;
69305;SDS011;56427;51.580;4.656;2022-08-20T12:08:52;8.33;;;2.30;;
69305;SDS011;56427;51.580;4.656;2022-08-20T12:11:17;7.07;;;2.17;;
69305;SDS011;56427;51.580;4.656;2022-08-20T12:13:42;6.97;;;2.13;;
69305;SDS011;56427;51.580;4.656;2022-08-20T12:16:09;9.23;;;2.20;;
69305;SDS011;56427;51.580;4.656;2022-08-20T12:18:34;9.80;;;2.20;;
69305;SDS011;56427;51.580;4.656;2022-08-20T12:20:59;7.33;;;2.23;;
69305;SDS011;56427;51.580;4.656;2022-08-20T12:23:24;8.67;;;2.10;;
69305;SDS011;56427;51.580;4.656;2022-08-20T12:25:50;10.83;;;2.50;;
69305;SDS011;56427;51.580;4.656;2022-08-20T12:28:15;10.13;;;2.23;;
69305;SDS011;56427;51.580;4.656;2022-08-20T12:30:40;9.25;;;2.30;;
69305;SDS011;56427;51.580;4.656;2022-08-20T12:33:06;7.97;;;2.20;;
69305;SDS011;56427;51.580;4.656;2022-08-20T12:35:31;7.30;;;2.10;;
69305;SDS011;56427;51.580;4.656;2022-08-20T12:37:57;6.53;;;2.00;;
69305;SDS011;56427;51.580;4.656;2022-08-20T12:40:27;10.63;;;2.15;;
69305;SDS011;56427;51.580;4.656;2022-08-20T12:42:52;9.30;;;2.03;;
69305;SDS011;56427;51.580;4.656;2022-08-20T12:45:18;9.90;;;2.33;;
69305;SDS011;56427;51.580;4.656;2022-08-20T12:47:45;8.70;;;2.43;;
69305;SDS011;56427;51.580;4.656;2022-08-20T12:50:19;7.10;;;1.95;;
69305;SDS011;56427;51.580;4.656;2022-08-20T12:52:47;6.38;;;1.70;;
69305;SDS011;56427;51.580;4.656;2022-08-20T12:55:14;10.73;;;2.23;;
69305;SDS011;56427;51.580;4.656;2022-08-20T12:57:43;10.70;;;1.98;;
69305;SDS011;56427;51.580;4.656;2022-08-20T13:00:24;8.93;;;2.35;;
69305;SDS011;56427;51.580;4.656;2022-08-20T13:02:52;8.77;;;2.38;;
69305;SDS011;56427;51.580;4.656;2022-08-20T13:05:18;7.53;;;2.10;;
69305;SDS011;56427;51.580;4.656;2022-08-20T13:07:44;9.97;;;2.43;;
69305;SDS011;56427;51.580;4.656;2022-08-20T13:10:12;11.35;;;2.30;;
69305;SDS011;56427;51.580;4.656;2022-08-20T13:12:40;10.05;;;2.58;;
69305;SDS011;56427;51.580;4.656;2022-08-20T13:15:05;8.07;;;2.00;;
69305;SDS011;56427;51.580;4.656;2022-08-20T13:17:31;8.53;;;2.03;;
69305;SDS011;56427;51.580;4.656;2022-08-20T13:19:56;10.13;;;2.13;;
69305;SDS011;56427;51.580;4.656;2022-08-20T13:22:22;7.77;;;1.80;;
69305;SDS011;56427;51.580;4.656;2022-08-20T13:24:47;9.70;;;2.00;;
69305;SDS011;56427;51.580;4.656;2022-08-20T13:27:16;8.00;;;2.10;;
69305;SDS011;56427;51.580;4.656;2022-08-20T13:29:46;11.25;;;2.10;;
69305;SDS011;56427;51.580;4.656;2022-08-20T13:32:13;9.77;;;2.60;;
69305;SDS011;56427;51.580;4.656;2022-08-20T13:34:39;9.10;;;2.10;;
69305;SDS011;56427;51.580;4.656;2022-08-20T13:37:11;9.77;;;2.00;;
69305;SDS011;56427;51.580;4.656;2022-08-20T13:39:38;6.30;;;1.90;;
69305;SDS011;56427;51.580;4.656;2022-08-20T13:42:04;8.93;;;2.10;;
69305;SDS011;56427;51.580;4.656;2022-08-20T13:44:30;8.60;;;2.10;;
69305;SDS011;56427;51.580;4.656;2022-08-20T13:46:55;11.60;;;2.17;;
69305;SDS011;56427;51.580;4.656;2022-08-20T13:49:20;5.00;;;1.63;;
69305;SDS011;56427;51.580;4.656;2022-08-20T13:51:45;8.33;;;1.90;;
69305;SDS011;56427;51.580;4.656;2022-08-20T13:54:11;7.30;;;2.07;;
69305;SDS011;56427;51.580;4.656;2022-08-20T13:56:36;10.10;;;2.40;;
69305;SDS011;56427;51.580;4.656;2022-08-20T13:59:01;6.60;;;1.73;;
69305;SDS011;56427;51.580;4.656;2022-08-20T14:01:27;7.87;;;1.73;;
69305;SDS011;56427;51.580;4.656;2022-08-20T14:03:52;6.27;;;1.80;;
69305;SDS011;56427;51.580;4.656;2022-08-20T14:06:17;7.37;;;1.90;;
69305;SDS011;56427;51.580;4.656;2022-08-20T14:08:43;6.93;;;1.87;;
69305;SDS011;56427;51.580;4.656;2022-08-20T14:11:08;8.00;;;2.07;;
69305;SDS011;56427;51.580;4.656;2022-08-20T14:13:33;8.27;;;1.80;;
69305;SDS011;56427;51.580;4.656;2022-08-20T14:15:58;6.73;;;1.90;;
69305;SDS011;56427;51.580;4.656;2022-08-20T14:18:24;10.03;;;2.33;;
69305;SDS011;56427;51.580;4.656;2022-08-20T14:20:49;9.33;;;2.00;;
69305;SDS011;56427;51.580;4.656;2022-08-20T14:23:14;7.10;;;1.70;;
69305;SDS011;56427;51.580;4.656;2022-08-20T14:25:40;9.73;;;1.85;;
69305;SDS011;56427;51.580;4.656;2022-08-20T14:28:14;8.05;;;2.13;;
69305;SDS011;56427;51.580;4.656;2022-08-20T14:30:41;6.72;;;2.17;;
69305;SDS011;56427;51.580;4.656;2022-08-20T14:33:07;5.57;;;1.57;;
69305;SDS011;56427;51.580;4.656;2022-08-20T14:35:33;5.17;;;1.60;;
69305;SDS011;56427;51.580;4.656;2022-08-20T14:37:58;6.23;;;1.60;;